createdAt,value
2017-08-31T00:01:19.190Z,52.96
2017-08-31T00:03:47.104Z,52.94
2017-08-31T00:06:15.254Z,53.01
2017-08-31T00:08:43.178Z,52.66
2017-08-31T00:11:11.097Z,52.71
2017-08-31T00:13:39.011Z,52.90
2017-08-31T00:16:06.920Z,52.95
2017-08-31T00:18:34.832Z,52.80
2017-08-31T00:21:02.749Z,52.92
2017-08-31T00:23:30.660Z,52.99
2017-08-31T00:25:58.567Z,53.03
2017-08-31T00:28:26.466Z,53.10
2017-08-31T00:30:54.387Z,53.26
2017-08-31T00:33:22.285Z,53.08
2017-08-31T00:35:50.186Z,53.13
2017-08-31T00:38:18.092Z,53.07
2017-08-31T00:40:46.175Z,52.86
2017-08-31T00:43:14.074Z,52.70
2017-08-31T00:45:41.976Z,52.63
2017-08-31T00:48:09.898Z,52.61
2017-08-31T00:50:37.888Z,52.72
2017-08-31T00:53:05.790Z,52.73
2017-08-31T00:55:33.700Z,52.53
2017-08-31T00:58:01.611Z,52.65
2017-08-31T01:00:29.505Z,52.61
2017-08-31T01:02:57.414Z,52.68
2017-08-31T01:05:25.531Z,52.45
2017-08-31T01:07:53.456Z,52.40
2017-08-31T01:10:21.368Z,52.27
2017-08-31T01:12:49.282Z,52.25
2017-08-31T01:15:17.187Z,52.14
2017-08-31T01:17:45.175Z,52.25
2017-08-31T01:20:13.078Z,52.16
2017-08-31T01:22:41.355Z,52.27
2017-08-31T01:25:09.324Z,52.30
2017-08-31T01:27:37.547Z,52.52
2017-08-31T01:30:05.536Z,52.45
2017-08-31T01:32:33.444Z,52.54
2017-08-31T01:35:01.345Z,52.62
2017-08-31T01:37:29.246Z,52.77
2017-08-31T01:39:57.164Z,52.93
2017-08-31T01:42:25.068Z,53.12
2017-08-31T01:44:52.983Z,53.65
2017-08-31T01:47:32.711Z,53.73
2017-08-31T01:50:00.812Z,53.79
2017-08-31T01:52:28.720Z,53.84
2017-08-31T01:54:56.630Z,54.04
2017-08-31T01:57:24.560Z,54.17
2017-08-31T01:59:52.473Z,54.36
2017-08-31T02:02:20.446Z,54.84
2017-08-31T02:04:48.352Z,55.01
2017-08-31T02:07:16.298Z,55.31
2017-08-31T02:09:44.216Z,55.12
2017-08-31T02:12:12.128Z,55.38
2017-08-31T02:14:40.041Z,55.65
2017-08-31T02:17:07.969Z,56.26
2017-08-31T02:19:35.869Z,56.24
2017-08-31T02:22:04.211Z,56.80
2017-08-31T02:24:32.426Z,57.31
2017-08-31T02:27:00.340Z,57.11
2017-08-31T02:29:28.321Z,57.54
2017-08-31T02:31:56.276Z,57.61
2017-08-31T02:34:24.224Z,57.49
2017-08-31T02:36:52.118Z,57.71
2017-08-31T02:39:20.036Z,57.87
2017-08-31T02:41:47.930Z,57.89
2017-08-31T02:44:16.047Z,57.95
2017-08-31T02:46:43.939Z,58.17
2017-08-31T02:49:11.852Z,58.19
2017-08-31T02:51:39.754Z,58.17
2017-08-31T02:54:07.962Z,58.26
2017-08-31T02:56:35.884Z,58.37
2017-08-31T02:59:04.111Z,58.62
2017-08-31T03:01:32.028Z,58.56
2017-08-31T03:03:59.931Z,58.95
2017-08-31T03:06:27.846Z,58.98
2017-08-31T03:08:55.738Z,59.33
2017-08-31T03:11:23.688Z,58.98
2017-08-31T03:13:51.829Z,59.46
2017-08-31T03:16:20.206Z,59.87
2017-08-31T03:18:48.109Z,60.08
2017-08-31T03:21:16.013Z,60.18
2017-08-31T03:23:43.931Z,60.33
2017-08-31T03:26:11.835Z,60.79
2017-08-31T03:28:39.755Z,61.31
2017-08-31T03:31:07.647Z,61.62
2017-08-31T03:33:35.568Z,61.36
2017-08-31T03:36:03.470Z,61.69
2017-08-31T03:38:31.389Z,61.76
2017-08-31T03:40:59.313Z,62.04
2017-08-31T03:43:27.237Z,62.55
2017-08-31T03:45:55.146Z,62.33
2017-08-31T03:48:23.979Z,62.40
2017-08-31T03:50:51.880Z,62.31
2017-08-31T03:53:19.788Z,63.13
2017-08-31T03:55:47.711Z,62.97
2017-08-31T03:58:15.904Z,63.31
2017-08-31T04:00:43.819Z,63.73
2017-08-31T04:03:11.714Z,64.09
2017-08-31T04:05:39.631Z,64.33
2017-08-31T04:08:07.522Z,64.44
2017-08-31T04:10:35.438Z,64.60
2017-08-31T04:13:03.352Z,64.89
2017-08-31T04:15:31.267Z,65.44
2017-08-31T04:17:59.158Z,65.41
2017-08-31T04:20:27.379Z,65.72
2017-08-31T04:22:55.284Z,66.29
2017-08-31T04:25:23.192Z,66.83
2017-08-31T04:27:51.104Z,66.56
2017-08-31T04:30:19.016Z,66.74
2017-08-31T04:32:46.927Z,66.81
2017-08-31T04:35:14.836Z,66.99
2017-08-31T04:37:42.755Z,67.23
2017-08-31T04:40:10.679Z,67.73
2017-08-31T04:42:38.574Z,67.78
2017-08-31T04:45:06.474Z,68.76
2017-08-31T04:47:34.510Z,69.21
2017-08-31T04:50:02.411Z,69.17
2017-08-31T04:52:30.302Z,69.43
2017-08-31T04:54:58.220Z,70.05
2017-08-31T04:57:26.109Z,70.02
2017-08-31T04:59:54.023Z,70.38
2017-08-31T05:02:21.935Z,70.30
2017-08-31T05:04:49.838Z,70.39
2017-08-31T05:07:17.752Z,69.36
2017-08-31T05:09:45.669Z,70.35
2017-08-31T05:12:13.566Z,69.87
2017-08-31T05:14:41.474Z,70.03
2017-08-31T05:17:09.375Z,69.51
2017-08-31T05:19:37.336Z,70.02
2017-08-31T05:22:05.230Z,69.66
2017-08-31T05:24:33.729Z,69.59
2017-08-31T05:27:01.635Z,69.61
2017-08-31T05:29:29.580Z,69.00
2017-08-31T05:31:57.489Z,68.76
2017-08-31T05:34:25.390Z,68.23
2017-08-31T05:36:53.307Z,68.72
2017-08-31T05:39:21.216Z,68.49
2017-08-31T05:41:49.137Z,68.77
2017-08-31T05:44:17.035Z,68.48
2017-08-31T05:46:44.937Z,68.51
2017-08-31T05:49:12.842Z,67.92
2017-08-31T05:51:40.745Z,68.00
2017-08-31T05:54:08.651Z,68.32
2017-08-31T05:56:36.558Z,67.60
2017-08-31T05:59:04.800Z,65.79
2017-08-31T06:01:32.707Z,63.80
2017-08-31T06:04:00.619Z,62.35
2017-08-31T06:06:29.072Z,61.10
2017-08-31T06:08:56.979Z,61.23
2017-08-31T06:11:24.883Z,60.94
2017-08-31T06:13:52.791Z,59.37
2017-08-31T06:16:20.686Z,57.67
2017-08-31T06:18:48.604Z,54.98
2017-08-31T06:21:16.511Z,53.01
2017-08-31T06:23:44.435Z,51.19
2017-08-31T06:26:12.338Z,49.81
2017-08-31T06:28:40.494Z,47.83
2017-08-31T06:31:08.386Z,47.69
2017-08-31T06:33:36.298Z,46.02
2017-08-31T06:36:04.202Z,44.71
2017-08-31T06:38:32.433Z,44.52
2017-08-31T06:41:01.030Z,44.28
2017-08-31T06:43:28.935Z,42.50
2017-08-31T06:45:56.843Z,43.00
2017-08-31T06:48:24.743Z,43.84
2017-08-31T06:50:52.671Z,44.36
2017-08-31T06:53:20.580Z,45.24
2017-08-31T06:55:48.527Z,46.66
2017-08-31T06:58:16.432Z,45.23
2017-08-31T07:00:44.349Z,44.36
2017-08-31T07:03:12.259Z,41.81
2017-08-31T07:05:40.173Z,41.62
2017-08-31T07:08:08.094Z,40.84
2017-08-31T07:10:36.011Z,38.55
2017-08-31T07:13:03.915Z,36.69
2017-08-31T07:15:31.847Z,35.01
2017-08-31T07:17:59.758Z,33.15
2017-08-31T07:20:27.660Z,33.72
2017-08-31T07:22:55.570Z,32.62
2017-08-31T07:25:23.475Z,31.57
2017-08-31T07:27:51.396Z,30.94
2017-08-31T07:30:19.320Z,31.15
2017-08-31T07:32:47.242Z,29.22
2017-08-31T07:35:15.138Z,29.29
2017-08-31T07:37:43.301Z,27.40
2017-08-31T07:40:11.199Z,29.22
2017-08-31T07:42:39.099Z,27.86
2017-08-31T07:45:07.012Z,29.20
2017-08-31T07:47:34.902Z,28.61
2017-08-31T07:50:02.823Z,28.20
2017-08-31T07:52:30.719Z,27.77
2017-08-31T07:54:58.832Z,26.13
2017-08-31T07:57:26.735Z,25.22
2017-08-31T07:59:54.649Z,26.16
2017-08-31T08:02:22.569Z,27.25
2017-08-31T08:04:50.471Z,27.22
2017-08-31T08:07:18.562Z,26.19
2017-08-31T08:09:46.489Z,26.14
2017-08-31T08:12:14.394Z,29.08
2017-08-31T08:14:42.305Z,28.73
2017-08-31T08:17:10.203Z,26.73
2017-08-31T08:19:38.111Z,25.87
2017-08-31T08:22:06.009Z,25.91
2017-08-31T08:24:33.923Z,26.19
2017-08-31T08:27:01.832Z,26.58
2017-08-31T08:29:29.730Z,26.84
2017-08-31T08:31:57.641Z,26.61
2017-08-31T08:34:25.546Z,26.60
2017-08-31T08:36:53.443Z,26.54
2017-08-31T08:39:21.356Z,26.09
2017-08-31T08:41:49.589Z,25.72
2017-08-31T08:44:17.716Z,24.71
2017-08-31T08:46:45.611Z,25.24
2017-08-31T08:49:13.514Z,24.42
2017-08-31T08:51:41.422Z,23.96
2017-08-31T08:54:09.320Z,24.31
2017-08-31T08:56:37.500Z,24.19
2017-08-31T08:59:05.417Z,23.95
2017-08-31T09:01:33.343Z,22.99
2017-08-31T09:04:01.268Z,22.27
2017-08-31T09:06:29.195Z,23.63
2017-08-31T09:08:57.105Z,24.21
2017-08-31T09:11:25.018Z,25.54
2017-08-31T09:13:52.939Z,25.68
2017-08-31T09:16:21.015Z,26.21
2017-08-31T09:18:49.232Z,25.90
2017-08-31T09:21:17.137Z,25.36
2017-08-31T09:23:45.052Z,27.12
2017-08-31T09:26:12.961Z,28.59
2017-08-31T09:28:40.973Z,30.96
2017-08-31T09:31:08.893Z,31.30
2017-08-31T09:33:36.815Z,31.27
2017-08-31T09:36:04.771Z,32.69
2017-08-31T09:38:32.695Z,34.69
2017-08-31T09:41:00.597Z,36.41
2017-08-31T09:43:28.521Z,35.94
2017-08-31T09:45:56.436Z,35.89
2017-08-31T09:48:24.353Z,37.96
2017-08-31T09:50:52.268Z,39.00
2017-08-31T09:53:20.194Z,40.38
2017-08-31T09:55:48.104Z,42.63
2017-08-31T09:58:16.016Z,43.74
2017-08-31T10:00:43.940Z,44.11
2017-08-31T10:03:11.859Z,43.89
2017-08-31T10:05:39.778Z,43.14
2017-08-31T10:08:07.699Z,42.12
2017-08-31T10:10:35.631Z,41.11
2017-08-31T10:13:03.550Z,40.33
2017-08-31T10:15:31.463Z,41.53
2017-08-31T10:17:59.372Z,42.06
2017-08-31T10:20:27.283Z,43.13
2017-08-31T10:22:55.179Z,42.91
2017-08-31T10:25:23.095Z,43.28
2017-08-31T10:27:51.006Z,43.66
2017-08-31T10:30:18.915Z,43.42
2017-08-31T10:32:46.824Z,42.92
2017-08-31T10:35:15.123Z,43.70
2017-08-31T10:37:43.034Z,42.91
2017-08-31T10:40:10.949Z,42.10
2017-08-31T10:42:38.863Z,41.67
2017-08-31T10:45:06.766Z,42.40
2017-08-31T10:47:34.679Z,42.85
2017-08-31T10:50:02.582Z,43.29
2017-08-31T10:52:30.492Z,45.46
2017-08-31T10:54:58.405Z,44.30
2017-08-31T10:57:26.333Z,44.02
2017-08-31T10:59:54.250Z,43.94
2017-08-31T11:02:22.293Z,43.79
2017-08-31T11:04:50.212Z,43.31
2017-08-31T11:07:18.107Z,42.56
2017-08-31T11:09:46.027Z,41.06
2017-08-31T11:12:13.941Z,41.09
2017-08-31T11:14:41.867Z,41.41
2017-08-31T11:17:10.047Z,41.00
2017-08-31T11:19:37.961Z,41.58
2017-08-31T11:22:05.873Z,41.10
2017-08-31T11:24:33.793Z,40.26
2017-08-31T11:27:01.724Z,41.42
2017-08-31T11:29:29.698Z,41.63
2017-08-31T11:31:57.553Z,41.64
2017-08-31T11:34:25.539Z,42.16
2017-08-31T11:36:53.551Z,42.49
2017-08-31T11:39:21.365Z,42.75
2017-08-31T11:41:49.273Z,43.15
2017-08-31T11:44:17.183Z,42.98
2017-08-31T11:46:45.087Z,43.64
2017-08-31T11:49:13.003Z,44.21
2017-08-31T11:51:40.919Z,44.41
2017-08-31T11:54:08.834Z,45.10
2017-08-31T11:56:37.046Z,45.79
2017-08-31T11:59:05.193Z,45.66
2017-08-31T12:01:33.097Z,45.83
2017-08-31T12:04:01.003Z,45.85
2017-08-31T12:06:28.913Z,45.82
2017-08-31T12:08:56.827Z,46.01
2017-08-31T12:11:24.761Z,46.45
2017-08-31T12:13:52.685Z,45.84
2017-08-31T12:16:20.606Z,45.21
2017-08-31T12:18:48.524Z,45.30
2017-08-31T12:21:16.458Z,45.27
2017-08-31T12:23:44.381Z,45.02
2017-08-31T12:26:12.279Z,44.38
2017-08-31T12:28:40.195Z,44.66
2017-08-31T12:31:08.110Z,44.29
2017-08-31T12:33:36.028Z,44.28
2017-08-31T12:36:03.922Z,44.03
2017-08-31T12:38:31.844Z,45.27
2017-08-31T12:40:59.740Z,44.92
2017-08-31T12:43:27.832Z,45.25
2017-08-31T12:45:55.747Z,45.13
2017-08-31T12:48:23.652Z,45.47
2017-08-31T12:50:51.559Z,44.98
2017-08-31T12:53:19.472Z,49.56
2017-08-31T12:55:47.392Z,52.63
2017-08-31T12:58:15.304Z,55.76
2017-08-31T13:00:43.232Z,57.15
2017-08-31T13:03:11.149Z,58.29
2017-08-31T13:05:39.179Z,59.46
2017-08-31T13:08:07.087Z,60.75
2017-08-31T13:10:34.992Z,63.82
2017-08-31T13:13:02.898Z,65.26
2017-08-31T13:15:30.803Z,67.06
2017-08-31T13:17:58.720Z,69.32
2017-08-31T13:20:26.622Z,71.37
2017-08-31T13:22:54.635Z,77.88
2017-08-31T13:25:22.548Z,85.03
2017-08-31T13:27:50.462Z,87.34
2017-08-31T13:30:18.378Z,89.71
2017-08-31T13:32:46.299Z,90.19
2017-08-31T13:35:14.207Z,91.55
2017-08-31T13:37:42.343Z,91.31
2017-08-31T13:40:10.269Z,90.41
2017-08-31T13:42:38.180Z,89.65
2017-08-31T13:45:06.109Z,89.77
2017-08-31T13:47:34.010Z,89.62
2017-08-31T13:50:01.937Z,91.04
2017-08-31T13:52:29.843Z,88.45
2017-08-31T13:54:57.763Z,86.63
2017-08-31T13:57:25.671Z,86.75
2017-08-31T13:59:53.587Z,87.00
2017-08-31T14:02:21.488Z,86.12
2017-08-31T14:04:49.604Z,87.38
2017-08-31T14:07:17.534Z,87.54
2017-08-31T14:09:45.473Z,87.37
2017-08-31T14:12:13.387Z,87.60
2017-08-31T14:14:41.300Z,85.89
2017-08-31T14:17:09.220Z,85.26
2017-08-31T14:19:37.120Z,84.87
2017-08-31T14:22:05.038Z,84.05
2017-08-31T14:24:32.939Z,82.99
2017-08-31T14:27:00.847Z,83.80
2017-08-31T14:29:28.751Z,83.48
2017-08-31T14:31:56.666Z,81.89
2017-08-31T14:34:24.579Z,82.65
2017-08-31T14:36:52.505Z,82.55
2017-08-31T14:39:20.403Z,82.15
2017-08-31T14:41:48.696Z,82.22
2017-08-31T14:44:16.609Z,80.79
2017-08-31T14:46:44.531Z,81.87
2017-08-31T14:49:12.454Z,81.94
2017-08-31T14:51:40.359Z,81.16
2017-08-31T14:54:08.287Z,79.67
2017-08-31T14:56:36.261Z,78.40
2017-08-31T14:59:04.171Z,76.13
2017-08-31T15:01:32.089Z,75.57
2017-08-31T15:04:00.300Z,76.64
